Terminal Aerodrome Forecast
Issued by NWS Bismarck, ND

Home | Current Version | Previous Version | Text Only | Print | Product List | Glossary On
Versions: 1 2 3 4 5 6 7 8 9 10 11 12 13 14 15 16 17
000
FTUS43 KBIS 312300
TAFISN
TAF
KISN 312320Z 0100/0124 05012KT 1SM -SN OVC015
     FM010400 03008KT P6SM BKN050
     FM010900 02004KT P6SM BKN090
     FM011900 21006KT P6SM FEW250=

USA.gov is the U.S. government's official web portal to all federal, state and local government web resources and services.